Time;durP1;ratioP1;P1;durP2;ratioP2;P2;SDS_P1;SDS_P2;PMS_P1;PMS_P2;Temp;Humidity;BMP_temperature;BMP_pressure;BME280_temperature;BME280_humidity;BME280_pressure;Samples;Min_cycle;Max_cycle;Signal;HPM_P1;HPM_P2
2021/10/20 00:01:01;;;;;;;1.27;0.60;;;;;;;7.45;54.37;100074.91;3389062;29;20076;-73
2021/10/20 00:02:42;;;;;;;6.85;0.57;;;;;;;7.48;53.89;100071.94;3387793;29;20055;-75
2021/10/20 00:04:22;;;;;;;2.15;0.60;;;;;;;7.52;54.02;100071.44;3388612;29;20044;-76
2021/10/20 00:06:03;;;;;;;1.75;0.65;;;;;;;7.56;53.45;100077.22;3388941;29;20044;-73
2021/10/20 00:07:45;;;;;;;0.93;0.60;;;;;;;7.51;52.94;100076.91;3389209;29;20048;-71
2021/10/20 00:09:26;;;;;;;1.83;0.77;;;;;;;7.39;52.83;100079.06;3389010;29;20040;-74
2021/10/20 00:11:07;;;;;;;0.75;0.75;;;;;;;7.30;53.03;100087.97;3388940;29;20643;-75
2021/10/20 00:12:49;;;;;;;1.08;0.88;;;;;;;7.27;53.43;100094.44;3388950;29;20059;-73
2021/10/20 00:14:30;;;;;;;4.65;0.90;;;;;;;7.25;53.31;100096.41;3388865;29;20131;-72
2021/10/20 00:16:11;;;;;;;1.63;0.80;;;;;;;7.22;53.34;100099.41;3388967;29;20508;-75
2021/10/20 00:17:51;;;;;;;1.58;0.82;;;;;;;7.18;52.87;100100.72;3388767;29;20494;-72
2021/10/20 00:19:32;;;;;;;0.82;0.70;;;;;;;7.17;53.91;100107.00;3389081;29;20036;-74
2021/10/20 00:21:13;;;;;;;2.40;0.88;;;;;;;7.13;53.32;100105.69;3387779;29;20447;-75
2021/10/20 00:22:54;;;;;;;2.92;1.25;;;;;;;7.06;53.38;100096.72;3388635;29;20488;-74
2021/10/20 00:24:35;;;;;;;1.58;0.80;;;;;;;7.06;53.48;100102.03;3388674;29;20048;-73
2021/10/20 00:26:16;;;;;;;1.35;0.82;;;;;;;7.02;53.72;100105.97;3387271;29;20074;-72
2021/10/20 00:27:57;;;;;;;1.10;0.95;;;;;;;7.04;53.81;100111.94;3388428;29;20048;-74
2021/10/20 00:29:37;;;;;;;1.30;0.93;;;;;;;7.01;53.81;100113.09;3388525;29;20416;-76
2021/10/20 00:31:18;;;;;;;3.38;0.90;;;;;;;6.98;53.74;100103.66;3388785;29;20126;-71
2021/10/20 00:32:59;;;;;;;0.73;0.70;;;;;;;6.93;53.79;100108.59;3388709;29;20411;-72
2021/10/20 00:34:39;;;;;;;0.90;0.88;;;;;;;6.91;53.81;100112.41;3388597;29;20126;-75
2021/10/20 00:36:20;;;;;;;0.80;0.70;;;;;;;6.84;54.05;100111.38;3388635;29;20040;-72
2021/10/20 00:38:01;;;;;;;0.82;0.70;;;;;;;6.77;54.01;100108.56;3361813;29;20417;-75
2021/10/20 00:39:42;;;;;;;1.15;0.95;;;;;;;6.76;54.12;100112.16;3383202;29;20055;-74
2021/10/20 00:41:27;;;;;;;0.88;0.73;;;;;;;6.80;54.47;100113.53;3396391;29;20048;-74
2021/10/20 00:43:08;;;;;;;1.15;0.70;;;;;;;6.82;54.49;100111.56;3394019;29;20472;-74
2021/10/20 00:44:56;;;;;;;1.02;0.77;;;;;;;6.86;54.13;100118.16;3389369;29;20040;-75
2021/10/20 00:46:37;;;;;;;1.17;0.80;;;;;;;6.84;54.28;100119.31;3388699;29;20488;-73
2021/10/20 00:48:17;;;;;;;1.50;1.13;;;;;;;6.83;54.61;100122.97;3389383;29;20047;-74
2021/10/20 00:49:58;;;;;;;1.08;0.98;;;;;;;6.79;54.48;100125.13;3387776;29;20449;-74
2021/10/20 00:51:39;;;;;;;3.40;0.93;;;;;;;6.75;54.16;100121.13;3388950;29;20067;-73
2021/10/20 00:53:19;;;;;;;1.27;1.08;;;;;;;6.73;54.25;100126.56;3387944;29;20134;-74
2021/10/20 00:55:01;;;;;;;1.30;1.20;;;;;;;6.74;54.48;100124.78;3385645;29;20119;-76
2021/10/20 00:56:42;;;;;;;0.93;0.82;;;;;;;6.79;54.65;100125.13;3385071;29;20040;-74
2021/10/20 00:58:22;;;;;;;0.93;0.75;;;;;;;6.82;55.05;100119.50;3371988;29;20127;-74
2021/10/20 01:00:06;;;;;;;0.80;0.80;;;;;;;6.85;54.77;100129.78;3395656;29;20039;-75
2021/10/20 01:01:46;;;;;;;1.20;0.70;;;;;;;6.87;54.54;100130.44;3391161;29;20055;-75
2021/10/20 01:03:27;;;;;;;0.68;0.68;;;;;;;6.83;54.57;100122.97;3388705;29;20568;-75
2021/10/20 01:05:09;;;;;;;1.10;0.80;;;;;;;6.77;54.30;100119.97;3388369;29;20059;-77
2021/10/20 01:06:51;;;;;;;1.20;0.68;;;;;;;6.77;54.12;100129.75;3388519;29;20123;-72
2021/10/20 01:08:31;;;;;;;0.90;0.90;;;;;;;6.73;53.92;100125.75;3388912;29;20055;-72
2021/10/20 01:10:13;;;;;;;3.25;0.73;;;;;;;6.74;54.34;100122.13;3388274;29;20453;-73
2021/10/20 01:11:54;;;;;;;0.60;0.60;;;;;;;6.82;54.63;100123.97;3388335;29;20051;-75
2021/10/20 01:13:35;;;;;;;4.00;1.38;;;;;;;6.86;54.42;100110.22;3388433;29;20051;-73
2021/10/20 01:15:26;;;;;;;0.50;0.50;;;;;;;6.90;54.09;100121.34;3387384;29;20427;-73
2021/10/20 01:17:07;;;;;;;1.30;0.70;;;;;;;6.82;54.44;100118.69;3386209;29;20044;-73
2021/10/20 01:18:48;;;;;;;1.85;0.80;;;;;;;6.77;54.50;100119.16;3388336;29;20539;-73
2021/10/20 01:20:31;;;;;;;0.73;0.73;;;;;;;6.70;54.31;100118.94;3388654;29;20091;-74
2021/10/20 01:22:13;;;;;;;0.82;0.82;;;;;;;6.68;54.19;100112.13;3388123;29;20044;-73
2021/10/20 01:23:53;;;;;;;0.83;0.80;;;;;;;6.72;54.16;100116.97;3388212;29;20040;-73
2021/10/20 01:25:34;;;;;;;1.73;0.90;;;;;;;6.77;54.10;100124.44;3389144;29;20054;-73
2021/10/20 01:27:15;;;;;;;3.80;0.90;;;;;;;6.79;53.97;100117.19;3387680;29;20056;-73
2021/10/20 01:28:56;;;;;;;0.70;0.70;;;;;;;6.76;54.00;100125.41;3389013;29;20111;-73
2021/10/20 01:30:36;;;;;;;3.00;0.98;;;;;;;6.72;53.78;100118.78;3387324;29;20468;-72
2021/10/20 01:32:17;;;;;;;1.80;0.90;;;;;;;6.70;53.93;100107.53;3388040;29;20079;-74
2021/10/20 01:33:58;;;;;;;1.67;1.58;;;;;;;6.75;53.91;100121.13;3388219;29;20164;-73
2021/10/20 01:35:38;;;;;;;1.20;1.10;;;;;;;6.76;53.54;100120.97;3388351;29;20139;-72
2021/10/20 01:37:21;;;;;;;1.52;0.80;;;;;;;6.79;53.66;100125.13;3388284;29;20530;-74
2021/10/20 01:39:01;;;;;;;0.73;0.73;;;;;;;6.85;53.59;100121.81;3388328;29;20056;-74
2021/10/20 01:40:42;;;;;;;0.60;0.60;;;;;;;6.86;53.24;100123.47;3388157;29;20048;-73
2021/10/20 01:42:29;;;;;;;1.00;0.70;;;;;;;6.85;53.07;100132.41;3387429;29;20081;-74
2021/10/20 01:44:10;;;;;;;1.45;0.80;;;;;;;6.80;53.39;100123.28;3385041;29;20095;-74
2021/10/20 01:45:50;;;;;;;0.77;0.60;;;;;;;6.75;53.29;100126.41;3387719;29;20039;-73
2021/10/20 01:47:31;;;;;;;1.70;0.80;;;;;;;6.67;53.46;100137.81;3387120;29;20058;-74
2021/10/20 01:49:12;;;;;;;0.50;0.50;;;;;;;6.58;53.26;100130.78;3384275;29;20425;-73
2021/10/20 01:50:52;;;;;;;2.97;1.00;;;;;;;6.58;53.23;100125.50;3387699;29;20570;-71
2021/10/20 01:52:33;;;;;;;1.80;0.80;;;;;;;6.60;53.12;100128.00;3388205;29;20515;-73
2021/10/20 01:54:14;;;;;;;1.23;0.93;;;;;;;6.59;53.16;100124.53;3387883;29;20040;-74
2021/10/20 01:55:54;;;;;;;1.85;0.88;;;;;;;6.62;53.03;100123.38;3387009;29;20111;-74
2021/10/20 01:57:35;;;;;;;0.77;0.60;;;;;;;6.62;52.95;100126.03;3388079;29;20444;-73
2021/10/20 01:59:16;;;;;;;0.82;0.80;;;;;;;6.64;52.82;100124.88;3387976;29;20052;-74
2021/10/20 02:00:57;;;;;;;0.93;0.68;;;;;;;6.63;52.70;100127.69;3388870;29;20500;-74
2021/10/20 02:02:37;;;;;;;1.02;0.57;;;;;;;6.63;52.53;100132.97;3390414;29;20051;-76
2021/10/20 02:04:18;;;;;;;3.08;0.65;;;;;;;6.57;52.18;100128.31;3390603;29;20036;-72
2021/10/20 02:05:58;;;;;;;2.10;0.80;;;;;;;6.54;52.33;100132.13;3389392;29;20086;-71
2021/10/20 02:07:39;;;;;;;0.85;0.77;;;;;;;6.53;52.78;100133.09;3390038;29;20051;-72
2021/10/20 02:09:20;;;;;;;3.33;1.00;;;;;;;6.53;52.67;100143.66;3376629;29;20518;-71
2021/10/20 02:11:01;;;;;;;0.95;0.80;;;;;;;6.54;53.08;100140.88;3384420;29;20079;-72
2021/10/20 02:12:42;;;;;;;1.05;0.95;;;;;;;6.52;53.14;100142.03;3387071;29;20072;-72
2021/10/20 02:14:22;;;;;;;1.13;1.00;;;;;;;6.47;53.38;100139.00;3390176;29;20559;-73
2021/10/20 02:16:04;;;;;;;1.60;0.90;;;;;;;6.42;53.38;100131.53;3390411;29;20044;-72
2021/10/20 02:17:44;;;;;;;1.27;1.08;;;;;;;6.43;53.59;100138.50;3390364;29;20056;-73
2021/10/20 02:19:27;;;;;;;0.75;0.75;;;;;;;6.43;53.69;100142.94;3390462;29;20044;-73
2021/10/20 02:21:08;;;;;;;1.42;1.10;;;;;;;6.42;53.64;100136.84;3390596;29;20047;-72
2021/10/20 02:22:48;;;;;;;1.52;1.05;;;;;;;6.41;53.45;100143.13;3389377;29;20584;-71
2021/10/20 02:24:29;;;;;;;1.73;0.88;;;;;;;6.37;53.50;100136.47;3386533;29;20040;-72
2021/10/20 02:26:10;;;;;;;2.38;1.00;;;;;;;6.33;53.44;100137.78;3389722;29;20463;-73
2021/10/20 02:27:51;;;;;;;3.22;1.00;;;;;;;6.20;53.67;100130.25;3390355;29;20048;-72
2021/10/20 02:29:32;;;;;;;2.15;1.52;;;;;;;6.15;53.89;100134.38;3389343;29;20492;-74
2021/10/20 02:31:12;;;;;;;3.50;0.93;;;;;;;6.14;53.87;100143.25;3373480;29;20083;-75
2021/10/20 02:32:53;;;;;;;2.20;1.00;;;;;;;6.11;54.31;100141.75;3399464;29;20084;-74
2021/10/20 02:34:34;;;;;;;0.80;0.80;;;;;;;6.10;54.24;100138.28;3388922;29;20180;-75
2021/10/20 02:36:15;;;;;;;0.75;0.75;;;;;;;6.05;54.56;100135.28;3389746;29;20041;-73
2021/10/20 02:37:56;;;;;;;0.60;0.60;;;;;;;6.05;54.32;100135.28;3389162;29;20127;-73
2021/10/20 02:39:36;;;;;;;1.33;1.02;;;;;;;6.09;54.18;100131.34;3389728;29;20143;-73
2021/10/20 02:41:17;;;;;;;0.73;0.70;;;;;;;6.10;54.03;100146.22;3388940;29;20143;-74
2021/10/20 02:42:58;;;;;;;0.77;0.70;;;;;;;6.07;53.83;100143.91;3399543;29;20047;-72
2021/10/20 02:44:38;;;;;;;0.80;0.80;;;;;;;6.07;53.69;100149.19;3389122;29;20036;-72
2021/10/20 02:46:19;;;;;;;1.38;0.90;;;;;;;6.03;53.78;100150.47;3389833;29;20044;-76
2021/10/20 02:47:59;;;;;;;3.17;1.90;;;;;;;5.98;53.79;100150.09;3389911;29;20151;-77
2021/10/20 02:49:40;;;;;;;1.13;1.05;;;;;;;5.97;53.75;100152.91;3389641;29;20044;-73
2021/10/20 02:51:21;;;;;;;0.85;0.82;;;;;;;5.95;53.82;100158.34;3389829;29;20044;-73
2021/10/20 02:53:02;;;;;;;1.00;0.90;;;;;;;5.92;54.00;100160.44;3390001;29;20573;-75
2021/10/20 02:54:42;;;;;;;2.78;0.90;;;;;;;5.92;54.18;100165.75;3389683;29;20048;-73
2021/10/20 02:56:23;;;;;;;1.00;0.88;;;;;;;5.92;54.40;100160.44;3390098;29;20043;-73
2021/10/20 02:58:04;;;;;;;1.35;1.15;;;;;;;5.98;54.30;100167.78;3389555;29;20082;-74
2021/10/20 02:59:45;;;;;;;2.28;0.80;;;;;;;6.04;54.57;100185.69;3389453;29;20103;-73
2021/10/20 03:01:25;;;;;;;2.67;0.90;;;;;;;6.08;54.49;100184.41;3389832;29;20044;-72
2021/10/20 03:03:06;;;;;;;2.40;0.90;;;;;;;6.04;54.14;100186.53;3389734;29;20571;-73
2021/10/20 03:04:47;;;;;;;1.27;1.10;;;;;;;6.03;53.97;100187.50;3389841;29;20055;-73
2021/10/20 03:06:27;;;;;;;1.00;0.80;;;;;;;6.05;53.93;100193.47;3389550;29;20127;-75
2021/10/20 03:08:11;;;;;;;3.97;1.23;;;;;;;6.09;53.84;100194.00;3389333;29;20048;-73
2021/10/20 03:09:51;;;;;;;1.08;0.95;;;;;;;6.11;53.95;100195.50;3389734;29;20040;-71
2021/10/20 03:11:32;;;;;;;3.38;1.05;;;;;;;6.15;54.31;100196.06;3389735;29;20048;-74
2021/10/20 03:13:13;;;;;;;0.90;0.90;;;;;;;6.22;54.13;100196.25;3388306;29;20111;-75
2021/10/20 03:14:53;;;;;;;2.08;0.90;;;;;;;6.25;53.68;100201.25;3390581;29;20091;-75
2021/10/20 03:16:34;;;;;;;1.30;0.80;;;;;;;6.24;53.13;100202.22;3389138;29;20040;-76
2021/10/20 03:18:15;;;;;;;1.23;0.90;;;;;;;6.23;53.16;100201.41;3390138;29;20535;-76
2021/10/20 03:19:55;;;;;;;3.40;1.63;;;;;;;6.12;53.48;100185.78;3389567;29;20134;-75
2021/10/20 03:21:36;;;;;;;1.20;1.00;;;;;;;6.17;53.54;100198.53;3390322;29;20062;-73
2021/10/20 03:23:17;;;;;;;3.05;1.17;;;;;;;6.19;53.30;100201.84;3389556;29;20397;-74
2021/10/20 03:24:57;;;;;;;1.58;1.35;;;;;;;6.13;53.11;100189.25;3376064;29;20927;-73
2021/10/20 03:26:38;;;;;;;3.35;1.17;;;;;;;6.19;53.17;100209.78;3386521;29;20139;-73
2021/10/20 03:28:18;;;;;;;2.05;0.93;;;;;;;6.15;53.42;100203.16;3389665;29;20048;-75
2021/10/20 03:29:59;;;;;;;1.55;1.45;;;;;;;6.13;53.30;100211.25;3388540;29;20044;-73
2021/10/20 03:31:40;;;;;;;1.58;1.48;;;;;;;6.10;53.30;100201.78;3389304;29;20127;-75
2021/10/20 03:33:20;;;;;;;1.10;1.00;;;;;;;6.06;53.24;100220.78;3389416;29;20044;-76
2021/10/20 03:35:01;;;;;;;1.58;1.27;;;;;;;6.04;53.37;100207.72;3388607;29;20036;-76
2021/10/20 03:36:42;;;;;;;2.60;1.33;;;;;;;6.09;53.60;100216.03;3389143;29;20065;-74
2021/10/20 03:38:22;;;;;;;5.38;1.20;;;;;;;6.10;53.93;100207.09;3389569;29;20148;-75
2021/10/20 03:40:04;;;;;;;4.72;1.23;;;;;;;6.08;53.77;100208.22;3389433;29;20095;-74
2021/10/20 03:41:45;;;;;;;1.20;1.10;;;;;;;6.07;53.68;100212.69;3389354;29;20047;-74
2021/10/20 03:43:25;;;;;;;1.50;1.20;;;;;;;6.03;53.80;100210.50;3389389;29;20048;-71
2021/10/20 03:45:06;;;;;;;1.30;1.17;;;;;;;5.98;53.75;100213.59;3389423;29;20051;-74
2021/10/20 03:46:47;;;;;;;2.50;1.40;;;;;;;5.95;53.93;100208.59;3389523;29;20036;-73
2021/10/20 03:48:28;;;;;;;3.38;1.10;;;;;;;5.92;53.56;100203.59;3390479;29;20051;-73
2021/10/20 03:50:08;;;;;;;4.25;1.05;;;;;;;5.94;54.04;100206.97;3392578;29;20091;-71
2021/10/20 03:51:49;;;;;;;5.70;1.55;;;;;;;5.99;54.02;100214.41;3390433;29;20130;-72
2021/10/20 03:53:30;;;;;;;1.83;1.20;;;;;;;5.98;53.56;100216.25;3391002;29;20127;-74
2021/10/20 03:55:11;;;;;;;1.20;1.10;;;;;;;5.91;53.52;100209.84;3390825;29;20111;-74
2021/10/20 03:56:51;;;;;;;1.33;1.30;;;;;;;5.94;53.45;100211.41;3390828;29;20052;-71
2021/10/20 03:58:32;;;;;;;1.75;0.90;;;;;;;6.05;53.64;100219.13;3389162;29;20063;-71
2021/10/20 04:00:15;;;;;;;2.47;0.82;;;;;;;6.08;53.83;100219.63;3388784;29;20083;-72
2021/10/20 04:01:55;;;;;;;1.38;0.90;;;;;;;6.12;53.54;100214.88;3389111;29;20048;-75
2021/10/20 04:03:38;;;;;;;6.43;0.70;;;;;;;6.15;53.49;100222.50;3388679;29;20500;-73
2021/10/20 04:05:19;;;;;;;2.53;0.85;;;;;;;6.11;53.17;100221.16;3389442;29;20095;-72
2021/10/20 04:07:00;;;;;;;0.60;0.60;;;;;;;6.07;53.10;100217.97;3388899;29;20669;-72
2021/10/20 04:08:41;;;;;;;2.05;0.90;;;;;;;6.05;53.21;100222.59;3388810;29;20048;-72
2021/10/20 04:10:25;;;;;;;3.38;1.00;;;;;;;6.05;53.28;100221.75;3388934;29;20054;-73
2021/10/20 04:12:06;;;;;;;1.40;0.85;;;;;;;6.01;53.18;100221.22;3387912;29;20481;-72
2021/10/20 04:13:47;;;;;;;6.72;1.10;;;;;;;6.00;53.12;100219.56;3388675;29;20052;-71
2021/10/20 04:15:27;;;;;;;1.60;0.63;;;;;;;6.01;53.42;100217.75;3389077;29;20049;-74
2021/10/20 04:17:08;;;;;;;4.78;0.80;;;;;;;6.03;53.33;100218.44;3387780;29;20095;-71
2021/10/20 04:18:49;;;;;;;1.88;1.00;;;;;;;6.07;53.42;100223.28;3385898;29;20137;-73
2021/10/20 04:20:29;;;;;;;1.52;0.80;;;;;;;6.12;52.98;100222.81;3386702;29;20131;-72
2021/10/20 04:22:10;;;;;;;2.50;0.75;;;;;;;6.16;53.02;100220.69;3388739;29;20051;-72
2021/10/20 04:23:50;;;;;;;1.00;1.00;;;;;;;6.20;52.86;100216.78;3389017;29;20484;-73
2021/10/20 04:25:31;;;;;;;1.05;0.80;;;;;;;6.21;52.68;100216.59;3388570;29;20048;-74
2021/10/20 04:27:12;;;;;;;1.77;0.60;;;;;;;6.21;52.40;100213.13;3388829;29;20051;-73
2021/10/20 04:28:52;;;;;;;1.58;0.80;;;;;;;6.16;52.58;100218.88;3390381;29;20535;-72
2021/10/20 04:30:33;;;;;;;1.00;0.90;;;;;;;6.09;52.50;100209.88;3390863;29;20046;-72
2021/10/20 04:32:13;;;;;;;2.17;0.88;;;;;;;6.03;52.65;100208.69;3389325;29;20044;-74
2021/10/20 04:33:54;;;;;;;1.73;0.90;;;;;;;6.00;52.60;100208.16;3389265;29;20043;-74
2021/10/20 04:35:35;;;;;;;1.38;1.00;;;;;;;6.03;52.92;100208.69;3389050;29;20047;-74
2021/10/20 04:37:23;;;;;;;1.08;0.85;;;;;;;6.06;52.70;100204.91;3388283;29;20044;-73
2021/10/20 04:39:03;;;;;;;1.45;0.80;;;;;;;6.11;52.45;100211.38;3388236;29;20067;-75
2021/10/20 04:40:44;;;;;;;0.73;0.70;;;;;;;6.14;52.32;100222.66;3386265;29;20064;-73
2021/10/20 04:42:29;;;;;;;1.40;1.25;;;;;;;6.18;52.79;100222.22;3388748;29;20055;-75
2021/10/20 04:44:09;;;;;;;1.55;1.25;;;;;;;6.15;52.66;100201.34;3388550;29;20512;-75
2021/10/20 04:45:51;;;;;;;3.03;1.27;;;;;;;6.16;52.68;100210.09;3387625;29;20051;-77
2021/10/20 04:47:32;;;;;;;3.28;1.48;;;;;;;6.15;52.68;100213.75;3389083;29;20044;-75
2021/10/20 04:49:13;;;;;;;2.53;1.35;;;;;;;6.07;52.59;100211.88;3388893;29;20067;-76
2021/10/20 04:50:53;;;;;;;3.33;1.27;;;;;;;6.03;52.51;100213.97;3387736;29;20040;-74
2021/10/20 04:52:35;;;;;;;1.60;0.80;;;;;;;6.01;52.27;100208.00;3387852;29;20081;-75
2021/10/20 04:54:16;;;;;;;2.67;1.17;;;;;;;6.02;52.14;100211.50;3388402;29;20096;-75
2021/10/20 04:55:56;;;;;;;1.33;1.10;;;;;;;5.99;52.06;100209.97;3388804;29;20131;-76
2021/10/20 04:57:37;;;;;;;1.50;1.40;;;;;;;5.97;52.12;100214.59;3388591;29;20507;-75
2021/10/20 04:59:21;;;;;;;1.65;1.38;;;;;;;5.94;51.88;100211.41;3387427;29;20103;-74
2021/10/20 05:01:02;;;;;;;2.17;1.10;;;;;;;5.86;51.91;100210.31;3385152;29;20063;-76
2021/10/20 05:02:42;;;;;;;1.55;1.30;;;;;;;5.83;52.13;100200.03;3388083;29;20509;-74
2021/10/20 05:04:23;;;;;;;1.30;1.08;;;;;;;5.81;52.03;100209.94;3388870;29;20048;-77
2021/10/20 05:06:05;;;;;;;1.92;1.45;;;;;;;5.78;52.09;100201.47;3388662;29;20543;-76
2021/10/20 05:07:53;;;;;;;1.67;1.33;;;;;;;5.84;52.01;100204.34;3388781;29;20055;-78
2021/10/20 05:09:34;;;;;;;1.20;1.10;;;;;;;5.84;51.77;100195.59;3388518;29;20511;-75
2021/10/20 05:11:15;;;;;;;5.75;1.65;;;;;;;5.83;51.69;100204.50;3387526;29;20051;-75
2021/10/20 05:12:56;;;;;;;3.50;2.45;;;;;;;5.82;51.83;100193.09;3388130;29;20204;-75
2021/10/20 05:14:37;;;;;;;4.75;3.75;;;;;;;5.87;51.68;100200.56;3388501;29;20056;-75
2021/10/20 05:16:17;;;;;;;3.00;2.30;;;;;;;5.92;51.67;100202.78;3387577;29;20507;-72
2021/10/20 05:17:58;;;;;;;2.40;1.95;;;;;;;6.01;51.59;100202.69;3397200;29;20047;-74
2021/10/20 05:19:39;;;;;;;2.88;1.88;;;;;;;6.02;52.11;100193.78;3400304;29;20131;-76
2021/10/20 05:21:19;;;;;;;4.13;1.20;;;;;;;6.17;52.50;100206.47;3402049;29;20126;-76
2021/10/20 05:23:00;;;;;;;2.08;1.40;;;;;;;6.22;52.35;100202.41;3402038;29;20040;-75
2021/10/20 05:24:41;;;;;;;16.52;3.08;;;;;;;6.33;52.19;100206.63;3396122;29;20048;-76
2021/10/20 05:26:22;;;;;;;1.08;1.00;;;;;;;6.42;52.12;100210.97;3399053;29;20055;-75
2021/10/20 05:28:03;;;;;;;2.55;0.90;;;;;;;6.55;51.89;100206.09;3399516;29;21628;-75
2021/10/20 05:29:43;;;;;;;1.65;0.95;;;;;;;6.64;51.56;100201.69;3399407;29;20504;-75
2021/10/20 05:31:25;;;;;;;2.08;1.13;;;;;;;6.76;50.95;100207.53;3396857;29;20043;-77
2021/10/20 05:33:06;;;;;;;2.03;1.17;;;;;;;6.92;50.47;100214.75;3393477;29;20411;-75
2021/10/20 05:34:46;;;;;;;2.63;1.40;;;;;;;7.14;49.88;100213.34;3387996;29;20048;-74
2021/10/20 05:36:27;;;;;;;3.47;1.20;;;;;;;7.50;49.77;100207.84;3392190;29;20091;-74
2021/10/20 05:38:08;;;;;;;1.48;1.17;;;;;;;7.93;49.56;100201.47;3404008;29;20047;-75
2021/10/20 05:39:48;;;;;;;2.22;1.10;;;;;;;8.44;49.07;100203.97;3404022;29;20044;-75
2021/10/20 05:41:29;;;;;;;5.50;1.30;;;;;;;8.94;48.84;100202.88;3402005;29;20035;-76
2021/10/20 05:43:10;;;;;;;3.58;1.60;;;;;;;9.32;47.67;100209.19;3397572;29;20091;-79
2021/10/20 05:44:50;;;;;;;2.28;1.67;;;;;;;9.60;46.52;100216.69;3392326;29;20500;-79
2021/10/20 05:46:31;;;;;;;4.10;1.98;;;;;;;9.76;45.80;100207.81;3390921;29;20072;-79
2021/10/20 05:48:12;;;;;;;2.08;1.95;;;;;;;9.91;45.25;100215.84;3390380;29;20040;-78
2021/10/20 05:49:53;;;;;;;1.20;1.10;;;;;;;10.10;45.12;100206.56;3390944;29;20047;-79
2021/10/20 05:51:34;;;;;;;4.78;1.70;;;;;;;10.42;44.62;100216.94;3391718;29;20044;-79
2021/10/20 05:53:15;;;;;;;2.80;1.23;;;;;;;10.78;43.75;100210.94;3398317;29;20091;-76
2021/10/20 05:54:55;;;;;;;6.18;1.33;;;;;;;11.02;43.05;100211.69;3403764;29;20046;-78
2021/10/20 05:56:36;;;;;;;1.63;1.30;;;;;;;11.35;42.49;100206.78;3392931;29;20130;-79
2021/10/20 05:58:17;;;;;;;6.22;1.88;;;;;;;11.69;41.98;100194.63;3390560;29;20051;-77
2021/10/20 05:59:57;;;;;;;2.17;1.70;;;;;;;12.10;40.99;100202.03;3391519;29;20478;-80
2021/10/20 06:01:38;;;;;;;3.40;1.40;;;;;;;12.22;40.58;100208.53;3400118;29;20129;-76
2021/10/20 06:03:21;;;;;;;2.97;1.30;;;;;;;12.00;40.23;100210.38;3397090;29;20075;-79
2021/10/20 06:05:02;;;;;;;6.57;1.10;;;;;;;12.07;40.36;100210.44;3386841;29;20447;-77
2021/10/20 06:06:46;;;;;;;2.08;1.17;;;;;;;12.35;40.31;100218.50;3389838;29;20051;-76
2021/10/20 06:08:27;;;;;;;1.17;0.98;;;;;;;12.59;39.55;100206.56;3390638;29;20044;-77
2021/10/20 06:10:08;;;;;;;1.67;1.05;;;;;;;12.70;39.29;100213.22;3390445;29;20744;-77
2021/10/20 06:11:49;;;;;;;3.08;1.17;;;;;;;12.74;39.55;100206.47;3400484;29;20047;-77
2021/10/20 06:13:29;;;;;;;2.08;1.20;;;;;;;12.95;38.99;100214.41;3390319;29;20048;-79
2021/10/20 06:15:10;;;;;;;2.40;1.52;;;;;;;13.01;38.54;100197.56;3376579;29;20552;-78
2021/10/20 06:16:51;;;;;;;1.40;0.93;;;;;;;12.77;38.28;100206.06;3387495;29;20055;-79
2021/10/20 06:18:31;;;;;;;1.90;1.00;;;;;;;12.35;38.27;100210.50;3390549;29;20055;-79
2021/10/20 06:20:12;;;;;;;2.15;1.20;;;;;;;11.97;38.77;100216.09;3396477;29;20048;-78
2021/10/20 06:21:53;;;;;;;1.58;1.00;;;;;;;11.55;39.10;100213.16;3401058;29;20519;-78
2021/10/20 06:23:34;;;;;;;3.42;1.20;;;;;;;11.16;39.63;100210.84;3402071;29;20593;-78
2021/10/20 06:25:14;;;;;;;1.52;0.90;;;;;;;10.84;39.91;100215.56;3403172;29;20067;-77
2021/10/20 06:26:55;;;;;;;1.00;0.90;;;;;;;10.51;40.33;100214.19;3403184;29;20058;-77
2021/10/20 06:28:36;;;;;;;1.20;0.80;;;;;;;10.13;40.66;100216.84;3403253;29;20195;-78
2021/10/20 06:30:17;;;;;;;3.03;1.10;;;;;;;9.87;41.50;100220.69;3402976;29;20522;-79
2021/10/20 06:31:57;;;;;;;3.28;1.10;;;;;;;9.58;41.81;100216.06;3400775;29;20373;-80
2021/10/20 06:33:40;;;;;;;3.75;1.10;;;;;;;9.28;42.29;100204.41;3403327;29;20047;-79
2021/10/20 06:35:20;;;;;;;;;;;;;;;9.26;42.99;100209.06;3403768;29;20043;-78
2021/10/20 06:37:02;;;;;;;1.20;1.10;;;;;;;8.89;43.06;100207.88;3402025;29;20081;-78
2021/10/20 06:38:42;;;;;;;2.17;1.45;;;;;;;8.73;43.71;100209.56;3402468;29;20039;-78
2021/10/20 06:40:23;;;;;;;2.50;1.90;;;;;;;8.58;44.06;100211.25;3401694;29;20046;-79
2021/10/20 06:42:04;;;;;;;4.50;1.65;;;;;;;8.44;44.37;100199.50;3398752;29;20415;-78
2021/10/20 06:43:45;;;;;;;1.58;1.20;;;;;;;8.38;44.62;100197.47;3391941;29;20036;-77
2021/10/20 06:45:29;;;;;;;1.30;1.10;;;;;;;8.35;44.91;100199.63;3395438;29;20051;-76
2021/10/20 06:47:11;;;;;;;5.00;2.10;;;;;;;8.34;45.45;100203.28;3390888;29;20040;-75
2021/10/20 06:48:52;;;;;;;5.28;1.63;;;;;;;8.25;45.38;100194.50;3389787;29;20076;-74
2021/10/20 06:50:34;;;;;;;7.40;1.38;;;;;;;8.22;45.76;100192.19;3391460;29;20048;-74
2021/10/20 06:52:15;;;;;;;1.52;1.30;;;;;;;8.16;45.88;100193.69;3390304;29;20044;-74
2021/10/20 06:53:58;;;;;;;1.73;1.25;;;;;;;8.22;46.42;100195.66;3390059;29;20096;-73
2021/10/20 06:55:39;;;;;;;2.78;1.40;;;;;;;8.17;46.24;100197.97;3389862;29;20578;-76
2021/10/20 06:57:20;;;;;;;1.48;1.30;;;;;;;8.04;46.36;100192.34;3389013;29;20075;-74
2021/10/20 06:59:02;;;;;;;2.95;1.30;;;;;;;7.93;46.38;100192.69;3388976;29;20043;-74
2021/10/20 07:00:45;;;;;;;1.27;1.17;;;;;;;7.80;46.55;100191.34;3395175;29;20067;-76
2021/10/20 07:02:26;;;;;;;3.03;1.52;;;;;;;7.76;46.50;100192.66;3390144;29;20040;-74
2021/10/20 07:04:08;;;;;;;5.82;1.50;;;;;;;7.61;47.32;100181.00;3389922;29;20063;-74
2021/10/20 07:05:49;;;;;;;;;;;;;;;7.76;47.05;100190.00;3389179;29;20052;-73
2021/10/20 07:07:31;;;;;;;3.60;1.20;;;;;;;7.62;47.21;100190.66;3388768;29;19970;-76
2021/10/20 07:09:12;;;;;;;1.37;1.27;;;;;;;7.54;47.24;100180.03;3388854;29;20284;-74
2021/10/20 07:10:53;;;;;;;3.17;1.27;;;;;;;7.47;47.27;100179.00;3391993;29;20315;-75
2021/10/20 07:12:37;;;;;;;1.35;1.05;;;;;;;7.34;47.34;100180.28;3390532;29;20039;-75
2021/10/20 07:14:17;;;;;;;2.25;1.30;;;;;;;7.20;47.53;100176.44;3390755;29;20072;-73
2021/10/20 07:15:59;;;;;;;3.60;1.42;;;;;;;7.20;48.34;100180.91;3391610;29;20397;-73
2021/10/20 07:17:40;;;;;;;2.95;1.60;;;;;;;7.19;48.04;100192.50;3388782;29;20040;-75
2021/10/20 07:19:23;;;;;;;3.75;1.45;;;;;;;7.13;48.09;100190.50;3391954;29;20523;-75
2021/10/20 07:21:04;;;;;;;3.92;1.30;;;;;;;7.08;48.42;100182.22;3391467;29;20044;-74
2021/10/20 07:22:45;;;;;;;1.55;1.45;;;;;;;7.02;48.22;100185.47;3399776;29;20067;-76
2021/10/20 07:24:26;;;;;;;5.32;1.38;;;;;;;7.03;48.33;100190.63;3388202;29;20443;-77
2021/10/20 07:26:07;;;;;;;1.85;1.73;;;;;;;6.98;48.71;100180.50;3389259;29;20146;-74
2021/10/20 07:27:50;;;;;;;2.85;1.52;;;;;;;6.98;48.88;100175.19;3388527;29;20166;-77
2021/10/20 07:29:31;;;;;;;1.17;1.08;;;;;;;6.97;49.08;100178.03;3388798;29;20407;-75
2021/10/20 07:31:12;;;;;;;3.38;1.85;;;;;;;6.99;48.94;100178.66;3390152;29;20063;-76
2021/10/20 07:32:52;;;;;;;3.00;1.77;;;;;;;7.08;48.66;100171.59;3388591;29;20039;-76
2021/10/20 07:34:33;;;;;;;2.95;1.70;;;;;;;7.12;48.58;100165.78;3395574;29;20551;-78
2021/10/20 07:36:14;;;;;;;4.65;1.67;;;;;;;7.55;48.49;100157.81;3389104;29;20102;-76
2021/10/20 07:37:56;;;;;;;3.10;1.70;;;;;;;8.00;47.92;100160.00;3388280;29;20046;-76
2021/10/20 07:39:37;;;;;;;5.32;1.85;;;;;;;8.32;47.25;100158.31;3391912;29;20755;-77
2021/10/20 07:41:19;;;;;;;7.75;2.50;;;;;;;8.38;47.48;100157.63;3388411;29;20075;-77
2021/10/20 07:43:00;;;;;;;4.78;2.22;;;;;;;8.33;47.74;100159.13;3392153;29;20496;-74
2021/10/20 07:44:43;;;;;;;7.47;3.03;;;;;;;8.28;47.82;100163.13;3395152;29;20071;-77
2021/10/20 07:46:24;;;;;;;5.35;2.25;;;;;;;8.24;47.63;100153.84;3396272;29;20044;-81
2021/10/20 07:48:05;;;;;;;8.32;2.60;;;;;;;8.33;48.34;100159.13;3397941;29;20048;-75
2021/10/20 07:49:47;;;;;;;6.70;2.67;;;;;;;8.57;47.77;100143.19;3400140;29;20167;-76
2021/10/20 07:51:28;;;;;;;4.68;2.33;;;;;;;8.89;47.54;100150.22;3400659;29;20122;-80
2021/10/20 07:53:09;;;;;;;4.82;2.95;;;;;;;9.02;47.55;100111.63;3398119;29;20146;-78
2021/10/20 07:54:50;;;;;;;5.57;2.05;;;;;;;9.43;46.44;100152.13;3384504;29;20048;-81
2021/10/20 07:56:36;;;;;;;5.57;2.30;;;;;;;9.51;45.80;100151.22;3395894;29;20529;-80